Terminal Aerodrome Forecast
Issued by NWS Charleston, WV

Current Version | Previous Version | Graphics & Text | Print | Product List | Glossary On
Versions: 1 2 3 4 5 6 7 8 9 10 11 12 13 14 15 16 17 18 19 20 21 22 23 24 25 26
000
FTUS41 KRLX 241400 AAB
TAFCRW
TAF AMD
KCRW 241405Z 2414/2512 00000KT 1/2SM FG VV001
      TEMPO 2414/2415 4SM BR SCT001
     FM241500 00000KT P6SM BKN200
     FM250800 00000KT 6SM BR SCT080
     FM251000 00000KT 5SM BR SCT080=

USA.gov is the U.S. government's official web portal to all federal, state and local government web resources and services.